Time;durP1;ratioP1;P1;durP2;ratioP2;P2;SDS_P1;SDS_P2;PMS_P1;PMS_P2;Temp;Humidity;BMP_temperature;BMP_pressure;BME280_temperature;BME280_humidity;BME280_pressure;Samples;Min_cycle;Max_cycle;Signal;HPM_P1;HPM_P2
2021/12/30 00:01:20;;;;;;;0.85;0.30;;;12.10;99.90;;;11.65;100.00;97029.16;5010769;28;20116;-47
2021/12/30 00:03:48;;;;;;;1.52;0.28;;;12.10;99.90;;;11.61;100.00;97033.72;5010695;28;20029;-48
2021/12/30 00:06:22;;;;;;;1.15;0.40;;;12.10;99.90;;;11.51;100.00;97045.66;5011756;28;20037;-47
2021/12/30 00:08:51;;;;;;;0.60;0.40;;;12.00;99.90;;;11.46;100.00;97021.22;5013011;28;20044;-51
2021/12/30 00:11:17;;;;;;;0.75;0.20;;;12.00;99.90;;;11.57;100.00;97037.44;5011204;28;20438;-47
2021/12/30 00:13:45;;;;;;;1.60;0.35;;;12.00;99.90;;;11.42;100.00;97048.72;5010740;28;20557;-47
2021/12/30 00:16:13;;;;;;;3.20;0.40;;;11.90;99.90;;;11.39;100.00;97054.97;5014079;28;20037;-49
2021/12/30 00:18:39;;;;;;;1.42;0.40;;;11.90;99.90;;;11.46;100.00;97059.06;5011443;28;20037;-47
2021/12/30 00:21:05;;;;;;;0.95;0.30;;;11.80;99.90;;;11.43;100.00;97068.91;5010011;28;20624;-47
2021/12/30 00:23:31;;;;;;;1.67;0.30;;;11.90;99.90;;;11.48;100.00;97082.75;5011764;28;20052;-49
2021/12/30 00:25:57;;;;;;;2.53;0.38;;;11.90;99.90;;;11.57;100.00;97077.03;5005885;28;20723;-47
2021/12/30 00:28:23;;;;;;;0.75;0.40;;;12.00;99.90;;;11.64;100.00;97112.81;5011220;28;20022;-47
2021/12/30 00:30:51;;;;;;;0.82;0.47;;;12.10;99.90;;;11.84;100.00;97095.19;5009654;28;20091;-48
2021/12/30 00:33:18;;;;;;;1.63;0.30;;;12.20;99.90;;;11.75;100.00;97101.75;5013878;28;20022;-47
2021/12/30 00:35:46;;;;;;;1.77;0.38;;;12.20;99.90;;;11.75;100.00;97101.75;5010782;28;20025;-47
2021/12/30 00:38:12;;;;;;;1.35;0.68;;;12.20;99.90;;;11.72;100.00;97104.56;5012189;28;20064;-49
2021/12/30 00:40:38;;;;;;;1.60;0.50;;;12.20;99.90;;;11.64;100.00;97109.31;5010934;28;20164;-50
2021/12/30 00:43:05;;;;;;;1.70;0.50;;;12.10;99.90;;;11.61;100.00;97114.72;5013946;28;20041;-47
2021/12/30 00:45:33;;;;;;;0.98;0.40;;;12.10;99.90;;;11.44;100.00;97107.59;5009328;28;20082;-49
2021/12/30 00:48:00;;;;;;;1.90;0.57;;;11.90;99.90;;;11.34;100.00;97116.84;5014234;28;20080;-47
2021/12/30 00:50:27;;;;;;;1.30;0.43;;;11.80;99.90;;;11.36;100.00;97113.22;5009587;28;20045;-49
2021/12/30 00:52:53;;;;;;;1.50;0.50;;;11.80;99.90;;;11.22;100.00;97108.53;5009793;28;20029;-46
2021/12/30 00:55:20;;;;;;;3.20;0.65;;;11.70;99.90;;;11.23;100.00;97110.28;5011786;28;20030;-47
2021/12/30 00:57:46;;;;;;;0.40;0.40;;;11.70;99.90;;;11.14;100.00;97104.53;5008465;28;20033;-46
2021/12/30 01:00:17;;;;;;;1.58;0.47;;;11.60;99.90;;;11.24;100.00;97114.63;5007735;28;20045;-49
2021/12/30 01:02:44;;;;;;;2.55;0.70;;;11.70;99.90;;;11.14;100.00;97121.22;5007893;28;20387;-48
2021/12/30 01:05:11;;;;;;;2.15;0.63;;;11.60;99.90;;;11.15;100.00;97116.81;5007348;28;20538;-48
2021/12/30 01:07:37;;;;;;;2.47;0.57;;;11.50;99.90;;;11.22;100.00;97126.19;5009413;28;20018;-48
2021/12/30 01:10:07;;;;;;;2.00;0.57;;;11.60;99.90;;;11.25;100.00;97124.25;5006307;28;20028;-48
2021/12/30 01:12:33;;;;;;;1.73;0.60;;;11.60;99.90;;;11.15;100.00;97125.56;5007769;28;20034;-49
2021/12/30 01:15:00;;;;;;;0.40;0.30;;;11.60;99.90;;;11.14;100.00;97147.59;5008584;28;20040;-47
2021/12/30 01:17:43;;;;;;;3.28;0.50;;;11.60;99.90;;;11.05;100.00;97146.25;5008368;28;20038;-47
2021/12/30 01:20:13;;;;;;;1.50;0.47;;;11.50;99.90;;;11.05;100.00;97146.25;5007916;28;20295;-51
2021/12/30 01:22:39;;;;;;;1.27;0.50;;;11.50;99.90;;;11.13;100.00;97148.53;5012434;28;20484;-48
2021/12/30 01:25:07;;;;;;;0.88;0.47;;;11.50;99.90;;;11.18;100.00;97143.94;5004936;28;20673;-47
2021/12/30 01:27:36;;;;;;;1.08;0.60;;;11.60;99.90;;;11.20;100.00;97154.44;5008762;28;20037;-48
2021/12/30 01:30:04;;;;;;;1.20;0.43;;;11.60;99.90;;;11.23;100.00;97155.16;5012126;28;20056;-47
2021/12/30 01:32:30;;;;;;;0.90;0.60;;;11.60;99.90;;;11.31;100.00;97161.88;5006604;28;20032;-49
2021/12/30 01:34:56;;;;;;;1.38;0.60;;;11.70;99.90;;;11.23;100.00;97173.63;5006613;28;20034;-49
2021/12/30 01:37:23;;;;;;;1.13;0.50;;;11.70;99.90;;;11.21;100.00;97169.31;5015204;28;20057;-47
2021/12/30 01:39:49;;;;;;;2.63;0.60;;;11.60;99.90;;;11.15;100.00;97167.81;5006138;28;20033;-49
2021/12/30 01:42:15;;;;;;;0.50;0.40;;;11.60;99.90;;;11.18;100.00;97164.16;5008639;28;20100;-47
2021/12/30 01:44:41;;;;;;;2.65;0.90;;;11.60;99.90;;;11.20;100.00;97159.72;5004085;28;20036;-44
2021/12/30 01:47:07;;;;;;;3.60;0.90;;;11.60;99.90;;;11.31;100.00;97172.44;5038107;22;20541;-41
2021/12/30 01:49:33;;;;;;;2.30;0.73;;;11.70;99.90;;;11.26;100.00;97180.53;5028993;28;20037;-42
2021/12/30 01:52:00;;;;;;;0.63;0.30;;;11.70;99.90;;;11.17;100.00;97187.06;5027370;28;20057;-41
2021/12/30 01:54:26;;;;;;;2.03;0.68;;;11.60;99.90;;;11.11;100.00;97186.47;5028129;28;20525;-41
2021/12/30 01:56:53;;;;;;;3.78;0.80;;;11.60;99.90;;;11.08;100.00;97198.88;5030107;28;20045;-40
2021/12/30 01:59:21;;;;;;;1.42;0.52;;;11.50;99.90;;;11.03;100.00;97215.81;5031446;28;20048;-42
2021/12/30 02:01:53;;;;;;;2.83;0.50;;;11.50;99.90;;;11.12;100.00;97218.06;5035765;28;20037;-41
2021/12/30 02:04:18;;;;;;;2.15;0.45;;;11.50;99.90;;;10.91;100.00;97204.03;5040810;28;20025;-40
2021/12/30 02:06:44;;;;;;;4.28;0.85;;;11.50;99.90;;;10.94;100.00;97214.41;5039704;28;20540;-40
2021/12/30 02:09:10;;;;;;;2.60;0.60;;;11.40;99.90;;;10.94;100.00;97232.03;5037139;28;20033;-44
2021/12/30 02:11:36;;;;;;;3.15;0.70;;;11.30;99.90;;;10.83;100.00;97235.97;5031331;28;20494;-41
2021/12/30 02:14:02;;;;;;;1.15;0.60;;;11.30;99.90;;;10.82;100.00;97225.47;5027504;28;20041;-44
2021/12/30 02:16:28;;;;;;;2.42;0.70;;;11.30;99.90;;;10.96;100.00;97230.19;5030637;28;20040;-47
2021/12/30 02:18:53;;;;;;;2.05;0.70;;;11.30;99.90;;;11.00;100.00;97232.66;5029556;28;20041;-42
2021/12/30 02:21:19;;;;;;;3.75;1.25;;;11.40;99.90;;;11.03;100.00;97236.94;5029299;28;20032;-48
2021/12/30 02:23:45;;;;;;;2.47;1.05;;;11.40;99.90;;;11.05;100.00;97243.00;5027760;28;20481;-38
2021/12/30 02:26:16;;;;;;;2.65;0.73;;;11.40;99.90;;;11.03;100.00;97239.56;5029737;28;20032;-45
2021/12/30 02:28:43;;;;;;;3.03;0.63;;;11.50;99.90;;;11.13;100.00;97243.56;5031326;28;20106;-44
2021/12/30 02:31:20;;;;;;;1.17;0.75;;;11.60;99.90;;;11.16;100.00;97246.06;5029486;28;20501;-43
2021/12/30 02:33:46;;;;;;;5.40;0.73;;;11.60;99.90;;;11.16;100.00;97245.19;5034330;28;20033;-43
2021/12/30 02:36:15;;;;;;;2.67;0.80;;;11.60;99.90;;;11.16;100.00;97255.75;5030749;28;20033;-45
2021/12/30 02:38:46;;;;;;;1.30;0.77;;;11.60;99.90;;;11.18;100.00;97253.91;5028648;28;20041;-44
2021/12/30 02:41:17;;;;;;;1.60;0.60;;;11.60;99.90;;;11.21;100.00;97259.91;5030077;28;20025;-46
2021/12/30 02:43:44;;;;;;;1.75;0.50;;;11.60;99.90;;;11.34;100.00;97268.22;5028904;28;20856;-44
2021/12/30 02:46:10;;;;;;;5.43;1.02;;;11.70;99.90;;;11.40;100.00;97277.66;5030158;28;20047;-40
2021/12/30 02:48:38;;;;;;;3.03;0.75;;;11.80;99.90;;;11.43;100.00;97267.81;5030671;28;20098;-43
2021/12/30 02:51:09;;;;;;;3.10;0.40;;;11.90;99.90;;;11.39;100.00;97273.28;5012059;28;20048;-41
2021/12/30 02:53:36;;;;;;;1.55;0.63;;;11.90;99.90;;;11.49;100.00;97271.13;5029305;28;20029;-47
2021/12/30 02:56:03;;;;;;;1.27;0.50;;;11.90;99.90;;;11.49;100.00;97277.25;5028387;28;20261;-44
2021/12/30 02:58:29;;;;;;;1.35;0.60;;;11.90;99.90;;;11.57;100.00;97280.41;5029853;28;21402;-42
2021/12/30 03:01:06;;;;;;;2.55;0.70;;;12.00;99.90;;;11.70;100.00;97290.44;5030063;28;20446;-43
2021/12/30 03:03:32;;;;;;;2.60;0.55;;;12.10;99.90;;;11.67;100.00;97272.97;5034405;28;20026;-49
2021/12/30 03:06:01;;;;;;;2.70;0.60;;;12.20;99.90;;;11.70;100.00;97290.44;5026405;28;20060;-44
2021/12/30 03:08:27;;;;;;;2.40;0.60;;;12.20;99.90;;;11.75;100.00;97288.47;5028316;28;20521;-46
2021/12/30 03:10:53;;;;;;;0.60;0.32;;;12.20;99.90;;;11.75;100.00;97294.59;5029974;28;20515;-40
2021/12/30 03:13:26;;;;;;;1.45;0.50;;;12.20;99.90;;;11.77;100.00;97291.91;5030453;28;20036;-42
2021/12/30 03:15:52;;;;;;;1.13;0.40;;;12.20;99.90;;;11.72;100.00;97284.19;5028543;28;21012;-42
2021/12/30 03:18:17;;;;;;;2.15;0.43;;;12.30;99.90;;;11.74;100.00;97295.53;5028910;28;20040;-48
2021/12/30 03:20:43;;;;;;;0.75;0.30;;;12.20;99.90;;;11.89;100.00;97298.44;5000264;28;20028;-45
2021/12/30 03:23:09;;;;;;;1.90;0.63;;;12.30;99.90;;;11.78;100.00;97296.28;5022914;28;20112;-43
2021/12/30 03:25:35;;;;;;;1.92;0.70;;;12.30;99.90;;;11.87;100.00;97314.38;5022464;28;20037;-44
2021/12/30 03:28:01;;;;;;;0.50;0.50;;;12.30;99.90;;;11.90;100.00;97310.72;5029877;28;20708;-44
2021/12/30 03:30:27;;;;;;;0.70;0.30;;;12.40;99.90;;;12.03;100.00;97315.44;5029451;28;20064;-43
2021/12/30 03:32:53;;;;;;;0.98;0.30;;;12.40;99.90;;;11.95;100.00;97307.00;5027989;28;20223;-40
2021/12/30 03:35:19;;;;;;;1.08;0.40;;;12.40;99.90;;;11.97;100.00;97313.06;5028975;28;20037;-44
2021/12/30 03:37:45;;;;;;;0.70;0.40;;;12.40;99.90;;;11.94;100.00;97309.72;5027356;28;20032;-41
2021/12/30 03:40:15;;;;;;;1.95;0.60;;;12.40;99.90;;;11.93;100.00;97314.13;5032161;28;20032;-42
2021/12/30 03:42:41;;;;;;;1.98;0.40;;;12.40;99.90;;;11.91;100.00;97325.69;5029472;28;20032;-48
2021/12/30 03:45:11;;;;;;;1.17;0.30;;;12.40;99.90;;;11.90;100.00;97329.22;5029784;28;20044;-43
2021/12/30 03:47:42;;;;;;;0.55;0.30;;;12.40;99.90;;;11.91;100.00;97325.69;5030169;28;20162;-46
2021/12/30 03:50:18;;;;;;;1.20;0.45;;;12.30;99.90;;;11.90;100.00;97330.13;5032810;28;20082;-44
2021/12/30 03:52:43;;;;;;;1.88;0.40;;;12.40;99.90;;;11.91;100.00;97328.34;5028615;28;20251;-44
2021/12/30 03:55:09;;;;;;;0.85;0.40;;;12.40;99.90;;;11.95;100.00;97333.44;5030833;28;20071;-48
2021/12/30 03:57:35;;;;;;;1.30;0.30;;;12.40;99.90;;;11.98;100.00;97335.06;5029743;28;20040;-43
2021/12/30 04:00:01;;;;;;;0.85;0.40;;;12.40;99.90;;;12.00;100.00;97336.72;5029816;28;20053;-41
2021/12/30 04:02:26;;;;;;;0.80;0.30;;;12.40;99.90;;;12.02;100.00;97332.25;5030690;28;21374;-47
2021/12/30 04:04:52;;;;;;;0.73;0.60;;;12.50;99.90;;;12.02;100.00;97347.22;5029441;28;20039;-44
2021/12/30 04:07:18;;;;;;;0.32;0.22;;;12.50;99.90;;;11.99;100.00;97344.72;5028706;28;20098;-41
2021/12/30 04:09:43;;;;;;;0.50;0.38;;;12.50;99.90;;;11.99;100.00;97350.88;5030356;28;20052;-42
2021/12/30 04:12:09;;;;;;;1.10;0.38;;;12.40;99.90;;;11.95;100.00;97349.28;5028391;28;20044;-46
2021/12/30 04:14:37;;;;;;;0.38;0.22;;;12.40;99.90;;;11.91;100.00;97350.31;5028669;28;20033;-46
2021/12/30 04:17:03;;;;;;;0.20;0.20;;;12.40;99.90;;;11.90;100.00;97353.91;5031132;28;20037;-44
2021/12/30 04:19:28;;;;;;;0.73;0.40;;;12.40;99.90;;;11.87;100.00;97348.72;5028166;28;20029;-46
2021/12/30 04:21:56;;;;;;;2.03;0.50;;;12.30;99.90;;;11.82;100.00;97363.91;5028521;28;20102;-39
2021/12/30 04:24:22;;;;;;;0.35;0.30;;;12.30;99.90;;;11.80;100.00;97358.69;5028022;28;20026;-42
2021/12/30 04:26:50;;;;;;;0.30;0.30;;;12.30;99.90;;;11.77;100.00;97361.47;5029158;28;20513;-41
2021/12/30 04:29:19;;;;;;;0.28;0.20;;;12.20;99.90;;;11.71;100.00;97350.28;5032185;28;21939;-42
2021/12/30 04:31:45;;;;;;;0.55;0.30;;;12.20;99.90;;;11.74;100.00;97366.03;5030814;28;20044;-46
2021/12/30 04:34:12;;;;;;;1.90;0.40;;;12.20;99.90;;;11.66;100.00;97358.41;5038140;28;20036;-42
2021/12/30 04:36:38;;;;;;;0.25;0.20;;;12.10;99.90;;;11.61;100.00;97368.28;5031746;28;20476;-48
2021/12/30 04:39:04;;;;;;;0.85;0.28;;;12.10;99.90;;;11.51;100.00;97357.28;5032759;28;20578;-46
2021/12/30 04:41:30;;;;;;;0.63;0.30;;;12.00;99.90;;;11.52;100.00;97366.94;5031655;28;20040;-41
2021/12/30 04:43:56;;;;;;;0.55;0.40;;;12.00;99.90;;;11.45;100.00;97368.94;5033112;28;20073;-39
2021/12/30 04:46:22;;;;;;;0.93;0.30;;;12.00;99.90;;;11.33;100.00;97360.69;5030220;28;20466;-42
2021/12/30 04:48:49;;;;;;;0.95;0.32;;;11.90;99.90;;;11.45;100.00;97387.44;5031630;28;20037;-40
2021/12/30 04:51:16;;;;;;;1.08;0.45;;;11.90;99.90;;;11.41;100.00;97390.25;5032627;28;20033;-49
2021/12/30 04:53:42;;;;;;;0.85;0.30;;;11.90;99.90;;;11.37;100.00;97393.94;5028527;28;20299;-48
2021/12/30 04:56:08;;;;;;;0.55;0.30;;;11.80;99.90;;;11.34;100.00;97383.50;5031294;28;20568;-41
2021/12/30 04:58:34;;;;;;;2.95;0.40;;;11.80;99.90;;;11.27;100.00;97386.41;5026271;28;20037;-43
2021/12/30 05:01:00;;;;;;;1.17;0.30;;;11.80;99.90;;;11.26;100.00;97387.31;5036045;28;20285;-40
2021/12/30 05:03:26;;;;;;;0.60;0.30;;;11.70;99.90;;;11.26;100.00;97391.72;5033702;28;20037;-41
2021/12/30 05:05:54;;;;;;;0.30;0.30;;;11.70;99.90;;;11.27;100.00;97398.75;5030390;28;20156;-41
2021/12/30 05:08:23;;;;;;;1.35;0.25;;;11.70;99.90;;;11.28;100.00;97393.38;5033123;28;20254;-43
2021/12/30 05:10:49;;;;;;;1.00;0.40;;;11.70;99.90;;;11.32;100.00;97399.41;5028918;28;20033;-44
2021/12/30 05:13:16;;;;;;;0.38;0.22;;;11.70;99.90;;;11.30;100.00;97397.75;5032237;28;20491;-43
2021/12/30 05:15:43;;;;;;;0.73;0.30;;;11.80;99.90;;;11.30;100.00;97392.47;5031990;28;20065;-44
2021/12/30 05:18:11;;;;;;;1.10;0.40;;;11.80;99.90;;;11.30;100.00;97392.47;5032658;28;20615;-41
2021/12/30 05:20:38;;;;;;;0.30;0.30;;;11.80;99.90;;;11.31;100.00;97386.28;5031222;28;20229;-41
2021/12/30 05:23:05;;;;;;;0.40;0.30;;;11.80;99.90;;;11.28;100.00;97384.59;5030046;28;20029;-43
2021/12/30 05:25:31;;;;;;;0.50;0.20;;;11.80;99.90;;;11.31;100.00;97404.75;5031944;28;20033;-43
2021/12/30 05:27:57;;;;;;;2.28;0.30;;;11.80;99.90;;;11.30;100.00;97406.53;5030475;28;20041;-41
2021/12/30 05:30:25;;;;;;;1.52;0.30;;;11.80;99.90;;;11.26;100.00;97399.66;5030592;28;20044;-41
2021/12/30 05:32:56;;;;;;;0.80;0.30;;;11.70;99.90;;;11.24;100.00;97402.34;5027881;28;20061;-41
2021/12/30 05:35:23;;;;;;;1.23;0.20;;;11.70;99.90;;;11.27;100.00;97410.16;5033455;28;20048;-42
2021/12/30 05:37:49;;;;;;;1.25;0.32;;;11.70;99.90;;;11.27;100.00;97407.50;5030584;28;20379;-39
2021/12/30 05:40:19;;;;;;;1.55;0.22;;;11.70;99.90;;;11.32;100.00;97414.38;5030452;28;20047;-46
2021/12/30 05:42:46;;;;;;;1.13;0.32;;;11.80;99.90;;;11.33;100.00;97413.47;5030167;28;20051;-42
2021/12/30 05:45:14;;;;;;;0.45;0.30;;;11.80;99.90;;;11.33;100.00;97414.34;5032021;28;20032;-38
2021/12/30 05:47:41;;;;;;;0.40;0.20;;;11.80;99.90;;;11.32;100.00;97424.94;5027913;28;20235;-44
2021/12/30 05:50:09;;;;;;;0.35;0.30;;;11.80;99.90;;;11.31;100.00;97425.88;5028104;28;20078;-40
2021/12/30 05:52:36;;;;;;;0.20;0.20;;;11.80;99.90;;;11.32;100.00;97427.59;5024946;28;20029;-43
2021/12/30 05:55:04;;;;;;;1.77;0.10;;;11.80;99.90;;;11.31;100.00;97420.59;5030292;28;20521;-49
2021/12/30 05:57:30;;;;;;;0.15;0.15;;;11.80;99.90;;;11.35;100.00;97427.47;5024842;28;20040;-42
2021/12/30 05:59:56;;;;;;;0.43;0.10;;;11.80;99.90;;;11.35;100.00;97430.97;5023169;28;20033;-44
2021/12/30 06:02:22;;;;;;;0.75;0.20;;;11.80;99.90;;;11.36;100.00;97431.81;5009249;28;20044;-41
2021/12/30 06:04:48;;;;;;;0.10;0.10;;;11.80;99.90;;;11.39;100.00;97432.56;5025684;28;20081;-41
2021/12/30 06:07:13;;;;;;;0.43;0.22;;;11.80;99.90;;;11.39;100.00;97434.34;5026866;28;20032;-44
2021/12/30 06:09:39;;;;;;;0.45;0.20;;;11.90;99.90;;;11.43;100.00;97435.94;5027063;28;20072;-40
2021/12/30 06:12:06;;;;;;;0.30;0.20;;;11.90;99.90;;;11.42;100.00;97440.38;5027030;28;20037;-43
2021/12/30 06:14:31;;;;;;;0.05;0.05;;;11.90;99.90;;;11.43;100.00;97441.22;5026061;28;20124;-43
2021/12/30 06:16:57;;;;;;;0.30;0.10;;;11.90;99.90;;;11.44;100.00;97448.22;5026688;28;20036;-43
2021/12/30 06:19:23;;;;;;;0.10;0.10;;;11.90;99.90;;;11.46;100.00;97456.94;5026916;28;20041;-43
2021/12/30 06:21:48;;;;;;;0.10;0.10;;;11.90;99.90;;;11.50;100.00;97453.25;5025284;28;20493;-46
2021/12/30 06:24:14;;;;;;;0.10;0.10;;;12.00;99.90;;;11.50;100.00;97458.53;5028828;28;20041;-40
2021/12/30 06:26:40;;;;;;;1.17;0.20;;;12.00;99.90;;;11.48;100.00;97443.69;5030411;28;20492;-42
2021/12/30 06:29:06;;;;;;;0.20;0.10;;;12.00;99.90;;;11.51;100.00;97451.50;5033190;28;20131;-45
2021/12/30 06:31:32;;;;;;;0.45;0.20;;;12.00;99.90;;;11.51;100.00;97455.00;5027192;28;20025;-43
2021/12/30 06:33:58;;;;;;;0.28;0.20;;;12.00;99.90;;;11.51;100.00;97449.72;5031358;28;20526;-40
2021/12/30 06:36:23;;;;;;;0.30;0.17;;;12.00;99.90;;;11.49;100.00;97451.56;5032440;28;20025;-46
2021/12/30 06:38:50;;;;;;;0.30;0.10;;;12.00;99.90;;;11.49;100.00;97461.25;5029390;28;20444;-49
2021/12/30 06:41:17;;;;;;;0.55;0.10;;;12.00;99.90;;;11.48;100.00;97463.03;5032415;28;20106;-43
2021/12/30 06:43:42;;;;;;;0.70;0.20;;;11.90;99.90;;;11.49;100.00;97466.53;5030328;28;20122;-42
2021/12/30 06:46:10;;;;;;;0.52;0.30;;;11.90;99.90;;;11.47;100.00;97474.53;5030351;28;20460;-39
2021/12/30 06:48:37;;;;;;;1.45;0.30;;;11.90;99.90;;;11.47;100.00;97487.72;5033526;28;20521;-42
2021/12/30 06:51:04;;;;;;;0.43;0.20;;;11.90;99.90;;;11.50;100.00;97481.47;5032405;28;20056;-40
2021/12/30 06:53:31;;;;;;;0.10;0.10;;;11.90;99.90;;;11.50;100.00;97486.75;5034072;28;20024;-47
2021/12/30 06:55:58;;;;;;;1.08;0.20;;;11.90;99.90;;;11.49;100.00;97477.97;5037254;28;20033;-41
2021/12/30 06:58:24;;;;;;;0.90;0.40;;;11.90;99.90;;;11.46;100.00;97491.28;5033776;28;20033;-40
2021/12/30 07:00:50;;;;;;;0.10;0.10;;;11.90;99.90;;;11.43;100.00;97486.09;5034280;28;20521;-38
2021/12/30 07:03:17;;;;;;;0.63;0.30;;;11.90;99.90;;;11.44;100.00;97487.84;5022664;28;20740;-45
2021/12/30 07:05:43;;;;;;;0.70;0.32;;;11.90;99.90;;;11.44;100.00;97488.69;5039801;28;20422;-41
2021/12/30 07:08:09;;;;;;;2.15;0.30;;;11.90;99.90;;;11.42;100.00;97492.31;5035308;28;20040;-43
2021/12/30 07:10:35;;;;;;;0.28;0.20;;;11.90;99.90;;;11.43;100.00;97505.47;5036065;28;20244;-43
2021/12/30 07:13:01;;;;;;;0.47;0.20;;;11.90;99.90;;;11.43;100.00;97502.84;5036413;28;20103;-44
2021/12/30 07:15:26;;;;;;;0.30;0.30;;;11.90;99.90;;;11.41;100.00;97493.22;5040738;28;20029;-42
2021/12/30 07:17:52;;;;;;;0.30;0.20;;;11.90;99.90;;;11.39;100.00;97497.72;5040423;28;20045;-41
2021/12/30 07:20:18;;;;;;;0.20;0.20;;;11.90;99.90;;;11.46;100.00;97504.47;5040399;28;20043;-42
2021/12/30 07:22:44;;;;;;;0.10;0.10;;;11.90;99.90;;;11.48;100.00;97507.91;5040690;28;20033;-41
2021/12/30 07:25:16;;;;;;;0.43;0.20;;;11.90;99.90;;;11.43;100.00;97520.44;5041218;28;20032;-47
2021/12/30 07:27:50;;;;;;;0.25;0.15;;;11.90;99.90;;;11.42;100.00;97508.16;5040414;28;20071;-43
2021/12/30 07:30:17;;;;;;;0.20;0.15;;;11.80;99.90;;;11.46;100.00;97510.63;5039253;28;20600;-42
2021/12/30 07:32:43;;;;;;;1.17;0.30;;;11.90;99.90;;;11.44;100.00;97519.53;5034773;28;20048;-44
2021/12/30 07:35:09;;;;;;;0.43;0.20;;;11.90;99.90;;;11.45;100.00;97521.25;5032454;28;20056;-42
2021/12/30 07:37:35;;;;;;;1.85;0.52;;;11.90;99.90;;;11.46;100.00;97528.25;5036269;28;20044;-44
2021/12/30 07:40:02;;;;;;;0.43;0.20;;;11.90;99.90;;;11.50;100.00;97529.00;5039373;28;20120;-42
2021/12/30 07:42:27;;;;;;;0.13;0.13;;;11.90;99.90;;;11.56;100.00;97532.25;5040621;28;20526;-44
2021/12/30 07:44:53;;;;;;;0.25;0.20;;;11.90;99.90;;;11.54;100.00;97523.53;5024249;28;20210;-46
2021/12/30 07:47:19;;;;;;;0.73;0.20;;;12.00;99.90;;;11.49;100.00;97522.84;5043935;22;20052;-85
2021/12/30 07:49:46;;;;;;;0.40;0.20;;;12.10;99.90;;;11.47;100.00;97516.78;5023806;28;20060;-85
2021/12/30 07:52:12;;;;;;;0.25;0.10;;;12.00;99.90;;;11.57;100.00;97533.97;5016591;28;20029;-85
2021/12/30 07:54:38;;;;;;;0.28;0.22;;;12.10;99.90;;;11.53;100.00;97540.31;5028200;28;20042;-85
2021/12/30 07:57:04;;;;;;;0.10;0.10;;;12.10;99.90;;;11.57;100.00;97538.41;5003996;28;20414;-85
2021/12/30 07:59:29;;;;;;;2.05;0.22;;;12.10;99.90;;;11.64;100.00;97540.72;5000629;28;20068;-85
2021/12/30 08:01:56;;;;;;;0.25;0.20;;;12.10;99.90;;;11.65;100.00;97552.19;4987155;28;20060;-85
2021/12/30 08:04:22;;;;;;;0.68;0.40;;;12.20;99.90;;;11.67;100.00;97546.84;5020302;28;20033;-85
2021/12/30 08:06:47;;;;;;;0.50;0.30;;;12.20;99.90;;;11.74;100.00;97550.97;5008574;28;20434;-85
2021/12/30 08:09:13;;;;;;;0.70;0.20;;;12.20;99.90;;;11.75;100.00;97552.66;4992614;28;20418;-85
2021/12/30 08:11:39;;;;;;;0.38;0.20;;;12.20;99.90;;;11.79;100.00;97554.25;4992125;28;21552;-85
2021/12/30 08:14:04;;;;;;;0.17;0.13;;;12.30;99.90;;;11.39;100.00;97492.44;4993184;28;20079;-86
2021/12/30 08:16:30;;;;;;;0.35;0.20;;;12.30;99.90;;;11.77;100.00;97557.00;4992800;28;20077;-85
2021/12/30 08:18:57;;;;;;;0.30;0.20;;;12.30;99.90;;;11.89;100.00;97570.63;5027127;28;20033;-85
2021/12/30 08:21:23;;;;;;;0.43;0.20;;;12.40;99.90;;;11.85;100.00;97548.75;5009690;28;20034;-85
2021/12/30 08:23:51;;;;;;;0.38;0.20;;;12.40;99.90;;;11.83;100.00;97532.97;5005345;28;20071;-85
2021/12/30 08:26:20;;;;;;;0.60;0.30;;;12.50;99.90;;;12.03;100.00;97558.63;4990143;28;20041;-85
2021/12/30 08:28:46;;;;;;;0.88;0.30;;;12.50;99.90;;;12.06;100.00;97565.59;5008813;28;20461;-84
2021/12/30 08:31:13;;;;;;;1.75;0.45;;;12.50;99.90;;;12.03;100.00;97557.75;5008882;28;20037;-85
2021/12/30 08:33:40;;;;;;;0.30;0.20;;;12.50;99.90;;;11.91;100.00;97537.97;4991550;28;20179;-85
2021/12/30 08:36:05;;;;;;;0.20;0.20;;;12.50;99.90;;;12.03;100.00;97548.03;5007000;28;20036;-85
2021/12/30 08:38:31;;;;;;;0.70;0.30;;;12.50;99.90;;;12.07;100.00;97551.41;4993287;28;20104;-85
2021/12/30 08:40:58;;;;;;;0.30;0.13;;;12.60;99.90;;;12.09;100.00;97565.44;5008878;28;20281;-85
2021/12/30 08:43:25;;;;;;;0.22;0.22;;;12.60;99.90;;;11.97;100.00;97553.59;4994086;28;20444;-86
2021/12/30 08:45:50;;;;;;;0.30;0.20;;;12.50;99.90;;;11.96;100.00;97565.06;4993261;28;20397;-85
2021/12/30 08:48:16;;;;;;;0.93;0.30;;;12.40;99.90;;;11.91;100.00;97571.47;5004627;28;20041;-84
2021/12/30 08:50:43;;;;;;;1.40;0.45;;;12.40;99.90;;;11.85;100.00;97580.47;5007980;28;20551;-84
2021/12/30 08:53:09;;;;;;;0.35;0.28;;;12.30;99.90;;;11.69;100.00;97558.22;4992201;28;20399;-85
2021/12/30 08:55:36;;;;;;;0.20;0.20;;;12.20;99.90;;;11.80;100.00;97574.50;5005181;28;20077;-85
2021/12/30 08:58:03;;;;;;;1.13;0.35;;;12.20;99.90;;;11.79;100.00;97570.13;5005862;28;20037;-85
2021/12/30 09:00:33;;;;;;;0.55;0.32;;;12.30;99.90;;;11.92;100.00;97584.63;5002592;28;20057;-84
2021/12/30 09:03:00;;;;;;;2.55;0.30;;;12.30;99.90;;;11.97;100.00;97579.13;4990232;28;20040;-85
2021/12/30 09:05:27;;;;;;;1.30;0.57;;;12.40;99.90;;;12.01;100.00;97575.47;5005819;28;20423;-85
2021/12/30 09:07:53;;;;;;;0.47;0.30;;;12.50;99.90;;;12.09;100.00;97576.00;5004467;28;20457;-85
2021/12/30 09:10:20;;;;;;;0.73;0.30;;;12.50;99.90;;;12.22;100.00;97576.38;5004437;28;20457;-86
2021/12/30 09:12:48;;;;;;;1.25;0.40;;;12.60;99.90;;;12.33;100.00;97587.38;5006625;28;20274;-85
2021/12/30 09:15:18;;;;;;;0.80;0.40;;;12.80;99.90;;;12.38;100.00;97592.47;5007559;28;20538;-85
2021/12/30 09:17:46;;;;;;;0.47;0.30;;;12.90;99.90;;;12.51;100.00;97577.81;5013140;28;20069;-85
2021/12/30 09:20:13;;;;;;;0.88;0.50;;;13.00;99.90;;;12.70;100.00;97580.53;4993706;28;20296;-85
2021/12/30 09:22:39;;;;;;;1.80;0.43;;;13.20;99.90;;;12.94;100.00;97572.50;5010297;28;20033;-84
2021/12/30 09:25:08;;;;;;;1.45;0.40;;;13.40;99.90;;;13.06;100.00;97565.78;4991124;28;20104;-85
2021/12/30 09:27:35;;;;;;;0.47;0.30;;;13.50;99.90;;;13.23;100.00;97583.59;4995493;28;20163;-85
2021/12/30 09:30:03;;;;;;;0.70;0.40;;;13.60;99.90;;;13.03;100.00;97548.25;5003723;28;20037;-85
2021/12/30 09:32:29;;;;;;;1.77;0.50;;;13.70;99.90;;;13.10;100.00;97556.75;5003656;28;20387;-85
2021/12/30 09:34:55;;;;;;;1.65;0.40;;;13.70;99.90;;;13.11;100.00;97551.41;5005895;28;20037;-86
2021/12/30 09:37:20;;;;;;;0.75;0.30;;;13.70;99.90;;;13.14;100.00;97566.31;5008505;28;20040;-85
2021/12/30 09:39:46;;;;;;;0.63;0.30;;;13.70;99.90;;;13.10;100.00;97557.66;5011178;28;20029;-85
2021/12/30 09:42:14;;;;;;;2.10;0.50;;;13.70;99.90;;;13.23;100.00;97596.84;5023480;28;20029;-85
2021/12/30 09:44:40;;;;;;;0.77;0.30;;;13.70;99.90;;;12.96;100.00;97554.75;5010200;28;20060;-85
2021/12/30 09:47:08;;;;;;;0.88;0.32;;;13.60;99.90;;;13.01;100.00;97571.31;5008886;28;20044;-86
2021/12/30 09:49:34;;;;;;;0.35;0.20;;;13.70;99.90;;;13.17;100.00;97585.56;5019958;28;20033;-85
2021/12/30 09:52:00;;;;;;;0.28;0.20;;;13.60;99.90;;;13.16;100.00;97594.44;5022329;28;20034;-84
2021/12/30 09:54:25;;;;;;;0.82;0.30;;;13.70;99.90;;;13.22;100.00;97593.28;4995754;28;20088;-85
2021/12/30 09:56:52;;;;;;;0.45;0.30;;;13.70;99.90;;;13.29;100.00;97599.19;5007015;28;20083;-85
2021/12/30 09:59:21;;;;;;;1.08;0.38;;;13.70;99.90;;;13.23;100.00;97576.50;5009273;28;20037;-85
2021/12/30 10:01:46;;;;;;;1.05;0.32;;;13.70;99.90;;;13.06;100.00;97563.13;5008708;28;20028;-84
2021/12/30 10:04:13;;;;;;;0.50;0.30;;;13.70;99.90;;;13.39;100.00;97595.25;5025633;28;20033;-85
2021/12/30 10:06:48;;;;;;;1.42;0.40;;;13.80;99.90;;;13.30;100.00;97587.69;5009670;28;20087;-85
2021/12/30 10:09:16;;;;;;;0.38;0.25;;;13.80;99.90;;;13.30;100.00;97585.88;5022520;28;20034;-85
2021/12/30 10:11:53;;;;;;;1.05;0.30;;;13.80;99.90;;;13.38;100.00;97604.09;5005628;28;20048;-84